sensor_id;sensor_type;location;lat;lon;timestamp;temperature;humidity
33109;HTU21D;19481;51.118;6.940;2023-11-19T00:04:20;10.45;81.01
33109;HTU21D;19481;51.118;6.940;2023-11-19T00:09:21;10.52;80.69
33109;HTU21D;19481;51.118;6.940;2023-11-19T00:14:24;10.56;80.96
33109;HTU21D;19481;51.118;6.940;2023-11-19T00:19:26;10.63;80.87
33109;HTU21D;19481;51.118;6.940;2023-11-19T00:24:28;10.71;80.62
33109;HTU21D;19481;51.118;6.940;2023-11-19T00:29:32;10.78;80.19
33109;HTU21D;19481;51.118;6.940;2023-11-19T00:34:33;10.86;79.56
33109;HTU21D;19481;51.118;6.940;2023-11-19T00:39:35;10.89;79.37
33109;HTU21D;19481;51.118;6.940;2023-11-19T00:44:38;10.94;79.53
33109;HTU21D;19481;51.118;6.940;2023-11-19T00:49:39;10.96;79.01
33109;HTU21D;19481;51.118;6.940;2023-11-19T00:54:41;10.97;79.49
33109;HTU21D;19481;51.118;6.940;2023-11-19T00:59:44;10.98;79.36
33109;HTU21D;19481;51.118;6.940;2023-11-19T01:04:47;11.02;79.53
33109;HTU21D;19481;51.118;6.940;2023-11-19T01:09:49;11.05;78.95
33109;HTU21D;19481;51.118;6.940;2023-11-19T01:14:52;11.10;79.03
33109;HTU21D;19481;51.118;6.940;2023-11-19T01:19:54;11.14;78.80
33109;HTU21D;19481;51.118;6.940;2023-11-19T01:24:55;11.20;79.57
33109;HTU21D;19481;51.118;6.940;2023-11-19T01:29:59;11.36;79.69
33109;HTU21D;19481;51.118;6.940;2023-11-19T01:35:02;11.38;79.52
33109;HTU21D;19481;51.118;6.940;2023-11-19T01:40:05;11.53;81.95
33109;HTU21D;19481;51.118;6.940;2023-11-19T01:45:22;11.75;80.49
33109;HTU21D;19481;51.118;6.940;2023-11-19T01:50:27;12.10;80.11
33109;HTU21D;19481;51.118;6.940;2023-11-19T01:55:29;12.30;79.53
33109;HTU21D;19481;51.118;6.940;2023-11-19T02:00:32;12.52;79.78
33109;HTU21D;19481;51.118;6.940;2023-11-19T02:05:35;12.65;79.55
33109;HTU21D;19481;51.118;6.940;2023-11-19T02:10:37;12.67;78.15
33109;HTU21D;19481;51.118;6.940;2023-11-19T02:15:40;12.81;77.91
33109;HTU21D;19481;51.118;6.940;2023-11-19T02:20:42;12.82;77.82
33109;HTU21D;19481;51.118;6.940;2023-11-19T02:25:47;12.91;77.65
33109;HTU21D;19481;51.118;6.940;2023-11-19T02:30:51;12.94;77.37
33109;HTU21D;19481;51.118;6.940;2023-11-19T02:35:53;12.99;77.08
33109;HTU21D;19481;51.118;6.940;2023-11-19T02:40:55;13.00;78.08
33109;HTU21D;19481;51.118;6.940;2023-11-19T02:45:58;13.05;77.15
33109;HTU21D;19481;51.118;6.940;2023-11-19T02:50:59;13.06;78.11
33109;HTU21D;19481;51.118;6.940;2023-11-19T02:56:01;13.19;77.63
33109;HTU21D;19481;51.118;6.940;2023-11-19T03:01:24;13.18;76.90
33109;HTU21D;19481;51.118;6.940;2023-11-19T03:06:29;13.21;76.90
33109;HTU21D;19481;51.118;6.940;2023-11-19T03:11:32;13.23;76.73
33109;HTU21D;19481;51.118;6.940;2023-11-19T03:16:35;13.24;76.72
33109;HTU21D;19481;51.118;6.940;2023-11-19T03:21:37;13.33;76.55
33109;HTU21D;19481;51.118;6.940;2023-11-19T03:26:38;13.33;76.10
33109;HTU21D;19481;51.118;6.940;2023-11-19T03:31:43;13.39;75.81
33109;HTU21D;19481;51.118;6.940;2023-11-19T03:36:44;13.45;75.38
33109;HTU21D;19481;51.118;6.940;2023-11-19T03:41:47;13.43;75.15
33109;HTU21D;19481;51.118;6.940;2023-11-19T03:46:50;13.46;74.76
33109;HTU21D;19481;51.118;6.940;2023-11-19T03:51:51;13.44;75.70
33109;HTU21D;19481;51.118;6.940;2023-11-19T03:56:53;13.44;75.17
33109;HTU21D;19481;51.118;6.940;2023-11-19T04:01:57;13.40;74.59
33109;HTU21D;19481;51.118;6.940;2023-11-19T04:07:01;13.45;74.34
33109;HTU21D;19481;51.118;6.940;2023-11-19T04:12:04;13.43;73.90
33109;HTU21D;19481;51.118;6.940;2023-11-19T04:17:07;13.36;73.99
33109;HTU21D;19481;51.118;6.940;2023-11-19T04:22:09;13.25;74.29
33109;HTU21D;19481;51.118;6.940;2023-11-19T04:27:11;13.12;74.58
33109;HTU21D;19481;51.118;6.940;2023-11-19T04:32:14;13.01;74.65
33109;HTU21D;19481;51.118;6.940;2023-11-19T04:37:15;12.96;74.96
33109;HTU21D;19481;51.118;6.940;2023-11-19T04:42:17;12.91;75.40
33109;HTU21D;19481;51.118;6.940;2023-11-19T04:47:20;13.05;75.28
33109;HTU21D;19481;51.118;6.940;2023-11-19T04:52:21;13.11;74.95
33109;HTU21D;19481;51.118;6.940;2023-11-19T04:57:23;13.11;74.73
33109;HTU21D;19481;51.118;6.940;2023-11-19T05:02:26;13.16;74.55
33109;HTU21D;19481;51.118;6.940;2023-11-19T05:07:28;13.12;74.62
33109;HTU21D;19481;51.118;6.940;2023-11-19T05:12:29;13.15;74.07
33109;HTU21D;19481;51.118;6.940;2023-11-19T05:17:33;13.14;74.13
33109;HTU21D;19481;51.118;6.940;2023-11-19T05:22:34;13.19;73.93
33109;HTU21D;19481;51.118;6.940;2023-11-19T05:27:37;13.18;73.67
33109;HTU21D;19481;51.118;6.940;2023-11-19T05:32:40;13.10;73.59
33109;HTU21D;19481;51.118;6.940;2023-11-19T05:37:42;13.01;73.64
33109;HTU21D;19481;51.118;6.940;2023-11-19T05:42:44;12.92;73.39
33109;HTU21D;19481;51.118;6.940;2023-11-19T05:47:47;12.88;73.27
33109;HTU21D;19481;51.118;6.940;2023-11-19T05:52:48;12.86;73.43
33109;HTU21D;19481;51.118;6.940;2023-11-19T05:57:50;12.88;73.28
33109;HTU21D;19481;51.118;6.940;2023-11-19T06:02:53;12.82;73.40
33109;HTU21D;19481;51.118;6.940;2023-11-19T06:07:55;12.81;73.35
33109;HTU21D;19481;51.118;6.940;2023-11-19T06:12:58;12.75;73.01
33109;HTU21D;19481;51.118;6.940;2023-11-19T06:18:02;12.78;72.26
33109;HTU21D;19481;51.118;6.940;2023-11-19T06:23:03;12.57;72.93
33109;HTU21D;19481;51.118;6.940;2023-11-19T06:28:05;12.62;72.24
33109;HTU21D;19481;51.118;6.940;2023-11-19T06:33:08;12.57;72.07
33109;HTU21D;19481;51.118;6.940;2023-11-19T06:38:10;12.47;72.19
33109;HTU21D;19481;51.118;6.940;2023-11-19T06:43:11;12.34;72.84
33109;HTU21D;19481;51.118;6.940;2023-11-19T06:48:15;12.18;73.19
33109;HTU21D;19481;51.118;6.940;2023-11-19T06:53:17;12.15;72.95
33109;HTU21D;19481;51.118;6.940;2023-11-19T06:58:19;12.05;72.82
33109;HTU21D;19481;51.118;6.940;2023-11-19T07:03:21;12.02;72.76
33109;HTU21D;19481;51.118;6.940;2023-11-19T07:08:23;12.10;72.30
33109;HTU21D;19481;51.118;6.940;2023-11-19T07:13:25;11.99;72.51
33109;HTU21D;19481;51.118;6.940;2023-11-19T07:18:29;12.08;72.26
33109;HTU21D;19481;51.118;6.940;2023-11-19T07:23:32;12.12;71.58
33109;HTU21D;19481;51.118;6.940;2023-11-19T07:28:34;12.22;71.16
33109;HTU21D;19481;51.118;6.940;2023-11-19T07:33:37;12.33;70.90
33109;HTU21D;19481;51.118;6.940;2023-11-19T07:38:42;12.37;70.36
33109;HTU21D;19481;51.118;6.940;2023-11-19T07:43:44;12.43;70.66
33109;HTU21D;19481;51.118;6.940;2023-11-19T07:48:48;12.51;70.67
33109;HTU21D;19481;51.118;6.940;2023-11-19T07:53:49;12.63;70.32
33109;HTU21D;19481;51.118;6.940;2023-11-19T07:58:51;13.09;69.64
33109;HTU21D;19481;51.118;6.940;2023-11-19T08:03:54;14.89;63.83
33109;HTU21D;19481;51.118;6.940;2023-11-19T08:08:56;15.98;61.34
33109;HTU21D;19481;51.118;6.940;2023-11-19T08:13:57;17.06;59.21
33109;HTU21D;19481;51.118;6.940;2023-11-19T08:19:00;17.37;58.41
33109;HTU21D;19481;51.118;6.940;2023-11-19T08:24:04;16.50;62.79
33109;HTU21D;19481;51.118;6.940;2023-11-19T08:29:06;15.69;66.09
33109;HTU21D;19481;51.118;6.940;2023-11-19T08:34:08;14.99;67.67
33109;HTU21D;19481;51.118;6.940;2023-11-19T08:39:10;14.91;68.87
33109;HTU21D;19481;51.118;6.940;2023-11-19T08:44:12;14.75;68.20
33109;HTU21D;19481;51.118;6.940;2023-11-19T08:49:15;15.09;67.01
33109;HTU21D;19481;51.118;6.940;2023-11-19T08:54:16;15.23;66.78
33109;HTU21D;19481;51.118;6.940;2023-11-19T08:59:20;16.11;64.49
33109;HTU21D;19481;51.118;6.940;2023-11-19T09:04:23;15.32;64.05
33109;HTU21D;19481;51.118;6.940;2023-11-19T09:09:25;15.38;66.98
33109;HTU21D;19481;51.118;6.940;2023-11-19T09:14:26;14.79;68.52
33109;HTU21D;19481;51.118;6.940;2023-11-19T09:19:32;15.08;67.25
33109;HTU21D;19481;51.118;6.940;2023-11-19T09:24:33;15.03;65.98
33109;HTU21D;19481;51.118;6.940;2023-11-19T09:29:35;14.71;67.91
33109;HTU21D;19481;51.118;6.940;2023-11-19T09:34:38;15.01;66.81
33109;HTU21D;19481;51.118;6.940;2023-11-19T09:39:40;14.89;62.17
33109;HTU21D;19481;51.118;6.940;2023-11-19T09:44:43;15.72;64.93
33109;HTU21D;19481;51.118;6.940;2023-11-19T09:49:46;15.12;61.63
33109;HTU21D;19481;51.118;6.940;2023-11-19T09:54:48;14.85;67.31
33109;HTU21D;19481;51.118;6.940;2023-11-19T09:59:51;14.74;67.57
33109;HTU21D;19481;51.118;6.940;2023-11-19T10:04:55;14.58;67.75
33109;HTU21D;19481;51.118;6.940;2023-11-19T10:09:57;14.91;66.92
33109;HTU21D;19481;51.118;6.940;2023-11-19T10:15:01;15.24;65.29
33109;HTU21D;19481;51.118;6.940;2023-11-19T10:20:05;15.70;60.76
33109;HTU21D;19481;51.118;6.940;2023-11-19T10:25:21;16.17;60.72
33109;HTU21D;19481;51.118;6.940;2023-11-19T10:30:24;15.70;64.50
33109;HTU21D;19481;51.118;6.940;2023-11-19T10:35:27;15.30;66.42
33109;HTU21D;19481;51.118;6.940;2023-11-19T10:40:38;15.24;60.70
33109;HTU21D;19481;51.118;6.940;2023-11-19T10:45:40;15.17;66.72
33109;HTU21D;19481;51.118;6.940;2023-11-19T10:50:44;14.88;63.82
33109;HTU21D;19481;51.118;6.940;2023-11-19T10:55:48;15.06;66.43
33109;HTU21D;19481;51.118;6.940;2023-11-19T11:00:54;15.09;65.22
33109;HTU21D;19481;51.118;6.940;2023-11-19T11:05:57;14.86;62.09
33109;HTU21D;19481;51.118;6.940;2023-11-19T11:10:59;14.62;62.92
33109;HTU21D;19481;51.118;6.940;2023-11-19T11:16:01;14.59;66.50
33109;HTU21D;19481;51.118;6.940;2023-11-19T11:21:09;14.53;65.66
33109;HTU21D;19481;51.118;6.940;2023-11-19T11:26:25;14.47;63.32
33109;HTU21D;19481;51.118;6.940;2023-11-19T11:31:35;14.67;62.18
33109;HTU21D;19481;51.118;6.940;2023-11-19T11:36:46;15.73;59.19
33109;HTU21D;19481;51.118;6.940;2023-11-19T11:42:30;16.00;54.69
33109;HTU21D;19481;51.118;6.940;2023-11-19T11:48:11;16.04;54.95
33109;HTU21D;19481;51.118;6.940;2023-11-19T11:53:18;16.08;63.56
33109;HTU21D;19481;51.118;6.940;2023-11-19T11:58:20;15.86;64.01
33109;HTU21D;19481;51.118;6.940;2023-11-19T12:03:22;16.02;62.66
33109;HTU21D;19481;51.118;6.940;2023-11-19T12:08:29;15.98;62.29
33109;HTU21D;19481;51.118;6.940;2023-11-19T12:13:54;15.75;61.59
33109;HTU21D;19481;51.118;6.940;2023-11-19T12:19:02;15.34;63.89
33109;HTU21D;19481;51.118;6.940;2023-11-19T12:24:08;15.44;62.61
33109;HTU21D;19481;51.118;6.940;2023-11-19T12:29:10;15.34;65.04
33109;HTU21D;19481;51.118;6.940;2023-11-19T12:34:11;15.33;64.51
33109;HTU21D;19481;51.118;6.940;2023-11-19T12:39:14;15.17;65.44
33109;HTU21D;19481;51.118;6.940;2023-11-19T12:44:16;14.92;65.84
33109;HTU21D;19481;51.118;6.940;2023-11-19T12:49:18;14.85;65.63
33109;HTU21D;19481;51.118;6.940;2023-11-19T12:54:31;14.66;63.36
33109;HTU21D;19481;51.118;6.940;2023-11-19T12:59:33;14.34;66.23
33109;HTU21D;19481;51.118;6.940;2023-11-19T13:04:35;14.29;66.81
33109;HTU21D;19481;51.118;6.940;2023-11-19T13:09:38;14.75;62.34
33109;HTU21D;19481;51.118;6.940;2023-11-19T13:14:39;14.84;64.63
33109;HTU21D;19481;51.118;6.940;2023-11-19T13:19:42;15.06;64.24
33109;HTU21D;19481;51.118;6.940;2023-11-19T13:24:45;15.01;61.82
33109;HTU21D;19481;51.118;6.940;2023-11-19T13:29:47;14.93;64.67
33109;HTU21D;19481;51.118;6.940;2023-11-19T13:34:48;14.78;63.64
33109;HTU21D;19481;51.118;6.940;2023-11-19T13:39:51;15.11;64.05
33109;HTU21D;19481;51.118;6.940;2023-11-19T13:44:53;14.98;63.82
33109;HTU21D;19481;51.118;6.940;2023-11-19T13:49:55;14.65;65.65
33109;HTU21D;19481;51.118;6.940;2023-11-19T13:54:58;14.45;65.32
33109;HTU21D;19481;51.118;6.940;2023-11-19T14:00:00;14.35;61.99
33109;HTU21D;19481;51.118;6.940;2023-11-19T14:05:03;14.24;65.81
33109;HTU21D;19481;51.118;6.940;2023-11-19T14:10:08;14.22;65.95
33109;HTU21D;19481;51.118;6.940;2023-11-19T14:15:11;14.14;66.17
33109;HTU21D;19481;51.118;6.940;2023-11-19T14:20:13;14.09;66.28
33109;HTU21D;19481;51.118;6.940;2023-11-19T14:25:18;13.94;66.99
33109;HTU21D;19481;51.118;6.940;2023-11-19T14:30:19;13.78;66.84
33109;HTU21D;19481;51.118;6.940;2023-11-19T14:35:21;13.65;67.33
33109;HTU21D;19481;51.118;6.940;2023-11-19T14:40:24;13.48;68.10
33109;HTU21D;19481;51.118;6.940;2023-11-19T14:45:26;13.37;68.38
33109;HTU21D;19481;51.118;6.940;2023-11-19T14:50:27;13.37;68.33
33109;HTU21D;19481;51.118;6.940;2023-11-19T14:55:30;13.47;66.62
33109;HTU21D;19481;51.118;6.940;2023-11-19T15:00:33;13.65;66.33
33109;HTU21D;19481;51.118;6.940;2023-11-19T15:05:35;13.61;66.54
33109;HTU21D;19481;51.118;6.940;2023-11-19T15:10:38;13.59;66.59
33109;HTU21D;19481;51.118;6.940;2023-11-19T15:15:39;13.51;66.65
33109;HTU21D;19481;51.118;6.940;2023-11-19T15:20:41;13.33;67.01
33109;HTU21D;19481;51.118;6.940;2023-11-19T15:25:44;13.10;68.10
33109;HTU21D;19481;51.118;6.940;2023-11-19T15:30:46;12.90;68.82
33109;HTU21D;19481;51.118;6.940;2023-11-19T15:35:47;12.61;69.57
33109;HTU21D;19481;51.118;6.940;2023-11-19T15:40:50;12.60;69.59
33109;HTU21D;19481;51.118;6.940;2023-11-19T15:45:52;12.59;69.28
33109;HTU21D;19481;51.118;6.940;2023-11-19T15:50:53;12.55;69.35
33109;HTU21D;19481;51.118;6.940;2023-11-19T15:55:56;12.56;69.20
33109;HTU21D;19481;51.118;6.940;2023-11-19T16:00:58;12.55;69.01
33109;HTU21D;19481;51.118;6.940;2023-11-19T16:06:01;12.58;68.67
33109;HTU21D;19481;51.118;6.940;2023-11-19T16:11:05;12.61;67.98
33109;HTU21D;19481;51.118;6.940;2023-11-19T16:16:08;12.64;68.21
33109;HTU21D;19481;51.118;6.940;2023-11-19T16:21:10;12.69;67.84
33109;HTU21D;19481;51.118;6.940;2023-11-19T16:26:13;12.60;68.71
33109;HTU21D;19481;51.118;6.940;2023-11-19T16:31:15;12.47;69.18
33109;HTU21D;19481;51.118;6.940;2023-11-19T16:36:17;12.43;69.42
33109;HTU21D;19481;51.118;6.940;2023-11-19T16:41:21;12.40;69.21
33109;HTU21D;19481;51.118;6.940;2023-11-19T16:46:23;12.34;69.61
33109;HTU21D;19481;51.118;6.940;2023-11-19T16:51:25;12.31;69.80
33109;HTU21D;19481;51.118;6.940;2023-11-19T16:56:27;12.31;69.49
33109;HTU21D;19481;51.118;6.940;2023-11-19T17:01:33;12.33;69.11
33109;HTU21D;19481;51.118;6.940;2023-11-19T17:06:37;12.38;68.66
33109;HTU21D;19481;51.118;6.940;2023-11-19T17:11:40;12.44;68.36
33109;HTU21D;19481;51.118;6.940;2023-11-19T17:16:43;12.55;67.79
33109;HTU21D;19481;51.118;6.940;2023-11-19T17:21:45;12.65;66.71
33109;HTU21D;19481;51.118;6.940;2023-11-19T17:26:48;12.75;65.77
33109;HTU21D;19481;51.118;6.940;2023-11-19T17:31:50;12.76;67.14
33109;HTU21D;19481;51.118;6.940;2023-11-19T17:36:52;12.72;67.41
33109;HTU21D;19481;51.118;6.940;2023-11-19T17:41:55;12.77;66.51
33109;HTU21D;19481;51.118;6.940;2023-11-19T17:46:56;12.79;66.98
33109;HTU21D;19481;51.118;6.940;2023-11-19T17:51:59;12.81;66.88
33109;HTU21D;19481;51.118;6.940;2023-11-19T17:57:02;12.82;64.91
33109;HTU21D;19481;51.118;6.940;2023-11-19T18:02:05;12.85;66.91
33109;HTU21D;19481;51.118;6.940;2023-11-19T18:07:06;12.82;66.59
33109;HTU21D;19481;51.118;6.940;2023-11-19T18:12:10;12.82;67.10
33109;HTU21D;19481;51.118;6.940;2023-11-19T18:17:12;12.82;67.01
33109;HTU21D;19481;51.118;6.940;2023-11-19T18:22:14;12.86;66.57
33109;HTU21D;19481;51.118;6.940;2023-11-19T18:27:17;12.93;66.65
33109;HTU21D;19481;51.118;6.940;2023-11-19T18:32:19;12.88;66.74
33109;HTU21D;19481;51.118;6.940;2023-11-19T18:37:21;12.73;67.30
33109;HTU21D;19481;51.118;6.940;2023-11-19T18:42:24;12.49;68.50
33109;HTU21D;19481;51.118;6.940;2023-11-19T18:47:26;12.44;68.48
33109;HTU21D;19481;51.118;6.940;2023-11-19T18:52:27;12.45;68.31
33109;HTU21D;19481;51.118;6.940;2023-11-19T18:57:30;12.43;68.50
33109;HTU21D;19481;51.118;6.940;2023-11-19T19:02:32;12.44;68.49
33109;HTU21D;19481;51.118;6.940;2023-11-19T19:07:33;12.42;68.61
33109;HTU21D;19481;51.118;6.940;2023-11-19T19:12:36;12.28;69.46
33109;HTU21D;19481;51.118;6.940;2023-11-19T19:17:39;12.13;70.35
33109;HTU21D;19481;51.118;6.940;2023-11-19T19:22:41;12.01;71.10
33109;HTU21D;19481;51.118;6.940;2023-11-19T19:27:44;11.91;71.64
33109;HTU21D;19481;51.118;6.940;2023-11-19T19:32:46;11.85;73.58
33109;HTU21D;19481;51.118;6.940;2023-11-19T19:37:47;11.68;73.60
33109;HTU21D;19481;51.118;6.940;2023-11-19T19:42:50;11.64;74.12
33109;HTU21D;19481;51.118;6.940;2023-11-19T19:47:52;11.64;73.47
33109;HTU21D;19481;51.118;6.940;2023-11-19T19:52:54;11.60;74.44
33109;HTU21D;19481;51.118;6.940;2023-11-19T19:57:58;11.56;74.11
33109;HTU21D;19481;51.118;6.940;2023-11-19T20:02:59;11.54;75.54
33109;HTU21D;19481;51.118;6.940;2023-11-19T20:08:01;11.54;75.83
33109;HTU21D;19481;51.118;6.940;2023-11-19T20:13:04;11.60;74.02
33109;HTU21D;19481;51.118;6.940;2023-11-19T20:18:09;11.70;73.25
33109;HTU21D;19481;51.118;6.940;2023-11-19T20:23:14;11.72;72.93
33109;HTU21D;19481;51.118;6.940;2023-11-19T20:28:17;11.73;73.48
33109;HTU21D;19481;51.118;6.940;2023-11-19T20:33:19;11.68;73.75
33109;HTU21D;19481;51.118;6.940;2023-11-19T20:38:20;11.63;74.64
33109;HTU21D;19481;51.118;6.940;2023-11-19T20:43:23;11.63;73.82
33109;HTU21D;19481;51.118;6.940;2023-11-19T20:48:25;11.60;74.86
33109;HTU21D;19481;51.118;6.940;2023-11-19T20:53:26;11.71;73.45
33109;HTU21D;19481;51.118;6.940;2023-11-19T20:58:29;11.81;72.50
33109;HTU21D;19481;51.118;6.940;2023-11-19T21:03:34;11.88;72.33
33109;HTU21D;19481;51.118;6.940;2023-11-19T21:08:37;11.96;71.39
33109;HTU21D;19481;51.118;6.940;2023-11-19T21:13:40;12.03;71.16
33109;HTU21D;19481;51.118;6.940;2023-11-19T21:18:42;12.07;72.30
33109;HTU21D;19481;51.118;6.940;2023-11-19T21:23:44;12.12;71.25
33109;HTU21D;19481;51.118;6.940;2023-11-19T21:28:46;12.14;70.85
33109;HTU21D;19481;51.118;6.940;2023-11-19T21:33:49;12.15;70.86
33109;HTU21D;19481;51.118;6.940;2023-11-19T21:38:50;12.17;71.03
33109;HTU21D;19481;51.118;6.940;2023-11-19T21:43:53;12.22;70.93
33109;HTU21D;19481;51.118;6.940;2023-11-19T21:48:55;12.28;70.61
33109;HTU21D;19481;51.118;6.940;2023-11-19T21:53:56;12.23;70.67
33109;HTU21D;19481;51.118;6.940;2023-11-19T21:58:59;12.25;71.23
33109;HTU21D;19481;51.118;6.940;2023-11-19T22:04:01;12.23;70.97
33109;HTU21D;19481;51.118;6.940;2023-11-19T22:09:03;12.12;72.51
33109;HTU21D;19481;51.118;6.940;2023-11-19T22:14:07;12.06;72.24
33109;HTU21D;19481;51.118;6.940;2023-11-19T22:19:08;11.97;73.12
33109;HTU21D;19481;51.118;6.940;2023-11-19T22:24:10;11.91;73.11
33109;HTU21D;19481;51.118;6.940;2023-11-19T22:29:13;11.81;73.77
33109;HTU21D;19481;51.118;6.940;2023-11-19T22:34:15;11.77;74.94
33109;HTU21D;19481;51.118;6.940;2023-11-19T22:39:17;11.77;74.36
33109;HTU21D;19481;51.118;6.940;2023-11-19T22:44:20;11.79;73.69
33109;HTU21D;19481;51.118;6.940;2023-11-19T22:49:22;11.70;74.76
33109;HTU21D;19481;51.118;6.940;2023-11-19T22:54:24;11.62;75.33
33109;HTU21D;19481;51.118;6.940;2023-11-19T22:59:27;11.57;75.41
33109;HTU21D;19481;51.118;6.940;2023-11-19T23:04:29;11.56;76.03
33109;HTU21D;19481;51.118;6.940;2023-11-19T23:09:31;11.59;77.43
33109;HTU21D;19481;51.118;6.940;2023-11-19T23:14:34;11.60;75.46
33109;HTU21D;19481;51.118;6.940;2023-11-19T23:19:35;11.64;75.63
33109;HTU21D;19481;51.118;6.940;2023-11-19T23:24:37;11.69;74.47
33109;HTU21D;19481;51.118;6.940;2023-11-19T23:29:40;11.71;74.32
33109;HTU21D;19481;51.118;6.940;2023-11-19T23:34:41;11.70;75.08
33109;HTU21D;19481;51.118;6.940;2023-11-19T23:39:43;11.71;74.06
33109;HTU21D;19481;51.118;6.940;2023-11-19T23:44:47;11.71;75.05
33109;HTU21D;19481;51.118;6.940;2023-11-19T23:49:48;11.76;73.96
33109;HTU21D;19481;51.118;6.940;2023-11-19T23:54:50;11.78;73.90
33109;HTU21D;19481;51.118;6.940;2023-11-19T23:59:53;11.81;73.39
